sensor_id;sensor_type;location;lat;lon;timestamp;P1;durP1;ratioP1;P2;durP2;ratioP2
8268;SDS011;4174;48.304;16.364;2023-07-24T00:00:15;8.70;;;3.70;;
8268;SDS011;4174;48.304;16.364;2023-07-24T00:06:20;7.97;;;3.53;;
8268;SDS011;4174;48.304;16.364;2023-07-24T00:12:26;8.40;;;3.30;;
8268;SDS011;4174;48.304;16.364;2023-07-24T00:18:32;9.80;;;3.13;;
8268;SDS011;4174;48.304;16.364;2023-07-24T00:24:37;7.53;;;3.25;;
8268;SDS011;4174;48.304;16.364;2023-07-24T00:30:44;8.17;;;3.40;;
8268;SDS011;4174;48.304;16.364;2023-07-24T00:36:51;8.65;;;3.72;;
8268;SDS011;4174;48.304;16.364;2023-07-24T00:42:56;7.90;;;3.60;;
8268;SDS011;4174;48.304;16.364;2023-07-24T00:49:03;7.07;;;3.20;;
8268;SDS011;4174;48.304;16.364;2023-07-24T00:55:09;7.32;;;3.40;;
8268;SDS011;4174;48.304;16.364;2023-07-24T01:01:14;8.85;;;3.53;;
8268;SDS011;4174;48.304;16.364;2023-07-24T01:07:20;8.40;;;3.50;;
8268;SDS011;4174;48.304;16.364;2023-07-24T01:13:32;8.17;;;3.50;;
8268;SDS011;4174;48.304;16.364;2023-07-24T01:19:37;8.97;;;3.30;;
8268;SDS011;4174;48.304;16.364;2023-07-24T01:31:53;8.03;;;3.50;;
8268;SDS011;4174;48.304;16.364;2023-07-24T01:37:59;9.13;;;3.53;;
8268;SDS011;4174;48.304;16.364;2023-07-24T01:44:06;9.18;;;3.42;;
8268;SDS011;4174;48.304;16.364;2023-07-24T01:50:13;8.25;;;3.22;;
8268;SDS011;4174;48.304;16.364;2023-07-24T01:56:27;9.40;;;3.50;;
8268;SDS011;4174;48.304;16.364;2023-07-24T02:02:32;8.25;;;3.47;;
8268;SDS011;4174;48.304;16.364;2023-07-24T02:08:39;8.15;;;3.40;;
8268;SDS011;4174;48.304;16.364;2023-07-24T02:14:45;7.90;;;3.30;;
8268;SDS011;4174;48.304;16.364;2023-07-24T02:20:52;7.23;;;3.40;;
8268;SDS011;4174;48.304;16.364;2023-07-24T02:26:59;8.63;;;3.67;;
8268;SDS011;4174;48.304;16.364;2023-07-24T02:33:05;8.45;;;3.50;;
8268;SDS011;4174;48.304;16.364;2023-07-24T02:39:10;8.57;;;3.60;;
8268;SDS011;4174;48.304;16.364;2023-07-24T02:45:15;7.65;;;3.58;;
8268;SDS011;4174;48.304;16.364;2023-07-24T02:51:21;8.33;;;3.70;;
8268;SDS011;4174;48.304;16.364;2023-07-24T02:57:26;8.03;;;3.60;;
8268;SDS011;4174;48.304;16.364;2023-07-24T03:03:34;7.60;;;3.60;;
8268;SDS011;4174;48.304;16.364;2023-07-24T03:09:39;8.73;;;3.70;;
8268;SDS011;4174;48.304;16.364;2023-07-24T03:15:51;10.83;;;3.97;;
8268;SDS011;4174;48.304;16.364;2023-07-24T03:21:56;8.13;;;3.60;;
8268;SDS011;4174;48.304;16.364;2023-07-24T03:28:02;9.32;;;3.67;;
8268;SDS011;4174;48.304;16.364;2023-07-24T03:34:07;9.07;;;3.90;;
8268;SDS011;4174;48.304;16.364;2023-07-24T03:40:14;8.67;;;4.00;;
8268;SDS011;4174;48.304;16.364;2023-07-24T03:46:18;9.23;;;3.83;;
8268;SDS011;4174;48.304;16.364;2023-07-24T03:52:23;9.77;;;4.18;;
8268;SDS011;4174;48.304;16.364;2023-07-24T03:58:31;8.82;;;4.32;;
8268;SDS011;4174;48.304;16.364;2023-07-24T04:04:37;13.70;;;6.82;;
8268;SDS011;4174;48.304;16.364;2023-07-24T04:10:43;32.75;;;17.30;;
8268;SDS011;4174;48.304;16.364;2023-07-24T04:16:48;29.40;;;16.57;;
8268;SDS011;4174;48.304;16.364;2023-07-24T04:22:53;15.63;;;7.97;;
8268;SDS011;4174;48.304;16.364;2023-07-24T04:29:00;15.60;;;8.13;;
8268;SDS011;4174;48.304;16.364;2023-07-24T04:35:05;9.35;;;4.50;;
8268;SDS011;4174;48.304;16.364;2023-07-24T04:41:11;11.30;;;5.37;;
8268;SDS011;4174;48.304;16.364;2023-07-24T04:47:17;11.20;;;5.30;;
8268;SDS011;4174;48.304;16.364;2023-07-24T04:53:22;12.25;;;5.00;;
8268;SDS011;4174;48.304;16.364;2023-07-24T04:59:27;11.23;;;5.32;;
8268;SDS011;4174;48.304;16.364;2023-07-24T05:05:38;11.73;;;5.35;;
8268;SDS011;4174;48.304;16.364;2023-07-24T05:11:44;11.88;;;5.10;;
8268;SDS011;4174;48.304;16.364;2023-07-24T05:17:49;13.23;;;5.40;;
8268;SDS011;4174;48.304;16.364;2023-07-24T05:23:54;13.43;;;5.43;;
8268;SDS011;4174;48.304;16.364;2023-07-24T05:30:03;11.27;;;5.12;;
8268;SDS011;4174;48.304;16.364;2023-07-24T05:36:10;13.07;;;5.23;;
8268;SDS011;4174;48.304;16.364;2023-07-24T05:42:18;11.47;;;5.33;;
8268;SDS011;4174;48.304;16.364;2023-07-24T05:48:26;13.10;;;5.20;;
8268;SDS011;4174;48.304;16.364;2023-07-24T05:54:32;14.83;;;5.73;;
8268;SDS011;4174;48.304;16.364;2023-07-24T06:00:38;12.50;;;5.37;;
8268;SDS011;4174;48.304;16.364;2023-07-24T06:06:43;13.27;;;5.32;;
8268;SDS011;4174;48.304;16.364;2023-07-24T06:12:51;12.40;;;5.70;;
8268;SDS011;4174;48.304;16.364;2023-07-24T06:18:58;12.65;;;5.22;;
8268;SDS011;4174;48.304;16.364;2023-07-24T06:25:10;13.80;;;5.37;;
8268;SDS011;4174;48.304;16.364;2023-07-24T06:31:17;12.20;;;4.90;;
8268;SDS011;4174;48.304;16.364;2023-07-24T06:37:27;12.27;;;5.30;;
8268;SDS011;4174;48.304;16.364;2023-07-24T06:43:36;9.27;;;4.70;;
8268;SDS011;4174;48.304;16.364;2023-07-24T06:49:44;12.37;;;5.05;;
8268;SDS011;4174;48.304;16.364;2023-07-24T06:55:50;9.80;;;4.62;;
8268;SDS011;4174;48.304;16.364;2023-07-24T07:01:56;10.23;;;4.70;;
8268;SDS011;4174;48.304;16.364;2023-07-24T07:08:04;11.63;;;4.57;;
8268;SDS011;4174;48.304;16.364;2023-07-24T07:14:13;12.35;;;4.57;;
8268;SDS011;4174;48.304;16.364;2023-07-24T07:20:19;10.77;;;4.80;;
8268;SDS011;4174;48.304;16.364;2023-07-24T07:26:24;10.67;;;5.20;;
8268;SDS011;4174;48.304;16.364;2023-07-24T07:32:31;11.57;;;4.80;;
8268;SDS011;4174;48.304;16.364;2023-07-24T07:38:35;11.00;;;4.70;;
8268;SDS011;4174;48.304;16.364;2023-07-24T07:44:45;8.93;;;4.70;;
8268;SDS011;4174;48.304;16.364;2023-07-24T07:50:52;11.43;;;5.80;;
8268;SDS011;4174;48.304;16.364;2023-07-24T07:56:57;14.23;;;5.07;;
8268;SDS011;4174;48.304;16.364;2023-07-24T08:03:06;10.10;;;5.20;;
8268;SDS011;4174;48.304;16.364;2023-07-24T08:09:34;11.05;;;4.70;;
8268;SDS011;4174;48.304;16.364;2023-07-24T08:15:41;14.47;;;5.60;;
8268;SDS011;4174;48.304;16.364;2023-07-24T08:21:47;13.43;;;5.50;;
8268;SDS011;4174;48.304;16.364;2023-07-24T08:27:54;12.87;;;5.53;;
8268;SDS011;4174;48.304;16.364;2023-07-24T08:34:00;11.90;;;5.70;;
8268;SDS011;4174;48.304;16.364;2023-07-24T08:40:15;10.30;;;5.40;;
8268;SDS011;4174;48.304;16.364;2023-07-24T08:46:19;14.75;;;5.50;;
8268;SDS011;4174;48.304;16.364;2023-07-24T08:52:27;11.10;;;5.20;;
8268;SDS011;4174;48.304;16.364;2023-07-24T08:58:32;10.37;;;4.80;;
8268;SDS011;4174;48.304;16.364;2023-07-24T09:04:42;10.83;;;4.57;;
8268;SDS011;4174;48.304;16.364;2023-07-24T09:10:50;10.90;;;4.90;;
8268;SDS011;4174;48.304;16.364;2023-07-24T09:17:09;10.10;;;4.80;;
8268;SDS011;4174;48.304;16.364;2023-07-24T09:23:16;11.80;;;4.97;;
8268;SDS011;4174;48.304;16.364;2023-07-24T09:29:30;10.63;;;4.50;;
8268;SDS011;4174;48.304;16.364;2023-07-24T09:35:33;11.07;;;4.70;;
8268;SDS011;4174;48.304;16.364;2023-07-24T09:41:40;9.50;;;4.33;;
8268;SDS011;4174;48.304;16.364;2023-07-24T09:47:46;9.15;;;4.53;;
8268;SDS011;4174;48.304;16.364;2023-07-24T09:53:58;12.00;;;4.30;;
8268;SDS011;4174;48.304;16.364;2023-07-24T10:00:03;11.63;;;4.80;;
8268;SDS011;4174;48.304;16.364;2023-07-24T10:06:10;11.70;;;4.62;;
8268;SDS011;4174;48.304;16.364;2023-07-24T10:12:14;9.68;;;4.70;;
8268;SDS011;4174;48.304;16.364;2023-07-24T10:18:26;9.93;;;4.60;;
8268;SDS011;4174;48.304;16.364;2023-07-24T10:24:29;9.17;;;4.30;;
8268;SDS011;4174;48.304;16.364;2023-07-24T10:30:39;10.63;;;4.27;;
8268;SDS011;4174;48.304;16.364;2023-07-24T10:36:43;10.30;;;4.50;;
8268;SDS011;4174;48.304;16.364;2023-07-24T10:49:03;9.75;;;4.37;;
8268;SDS011;4174;48.304;16.364;2023-07-24T10:55:13;8.87;;;4.07;;
8268;SDS011;4174;48.304;16.364;2023-07-24T11:01:26;12.57;;;4.20;;
8268;SDS011;4174;48.304;16.364;2023-07-24T11:07:33;8.83;;;4.37;;
8268;SDS011;4174;48.304;16.364;2023-07-24T11:13:39;9.90;;;4.30;;
8268;SDS011;4174;48.304;16.364;2023-07-24T11:19:46;10.40;;;4.37;;
8268;SDS011;4174;48.304;16.364;2023-07-24T11:25:53;10.40;;;4.47;;
8268;SDS011;4174;48.304;16.364;2023-07-24T11:32:00;10.20;;;4.37;;
8268;SDS011;4174;48.304;16.364;2023-07-24T11:38:06;8.85;;;4.30;;
8268;SDS011;4174;48.304;16.364;2023-07-24T11:44:14;9.38;;;4.53;;
8268;SDS011;4174;48.304;16.364;2023-07-24T11:50:22;9.73;;;4.63;;
8268;SDS011;4174;48.304;16.364;2023-07-24T12:02:58;10.20;;;4.80;;
8268;SDS011;4174;48.304;16.364;2023-07-24T12:09:07;9.97;;;4.43;;
8268;SDS011;4174;48.304;16.364;2023-07-24T12:15:15;10.15;;;4.53;;
8268;SDS011;4174;48.304;16.364;2023-07-24T12:21:23;10.23;;;4.80;;
8268;SDS011;4174;48.304;16.364;2023-07-24T12:27:32;12.43;;;4.80;;
8268;SDS011;4174;48.304;16.364;2023-07-24T12:33:39;9.43;;;4.30;;
8268;SDS011;4174;48.304;16.364;2023-07-24T12:39:44;12.63;;;4.60;;
8268;SDS011;4174;48.304;16.364;2023-07-24T12:45:51;12.63;;;4.65;;
8268;SDS011;4174;48.304;16.364;2023-07-24T12:51:56;9.95;;;4.85;;
8268;SDS011;4174;48.304;16.364;2023-07-24T12:58:02;10.35;;;4.60;;
8268;SDS011;4174;48.304;16.364;2023-07-24T13:04:09;11.57;;;4.90;;
8268;SDS011;4174;48.304;16.364;2023-07-24T13:10:16;9.07;;;4.30;;
8268;SDS011;4174;48.304;16.364;2023-07-24T13:16:26;14.03;;;5.20;;
8268;SDS011;4174;48.304;16.364;2023-07-24T13:22:29;12.47;;;5.13;;
8268;SDS011;4174;48.304;16.364;2023-07-24T13:28:37;10.30;;;5.20;;
8268;SDS011;4174;48.304;16.364;2023-07-24T13:34:42;14.77;;;5.27;;
8268;SDS011;4174;48.304;16.364;2023-07-24T13:40:48;11.60;;;5.45;;
8268;SDS011;4174;48.304;16.364;2023-07-24T13:46:53;11.07;;;5.20;;
8268;SDS011;4174;48.304;16.364;2023-07-24T13:53:02;11.90;;;5.47;;
8268;SDS011;4174;48.304;16.364;2023-07-24T13:59:07;10.37;;;4.90;;
8268;SDS011;4174;48.304;16.364;2023-07-24T14:05:26;13.00;;;5.70;;
8268;SDS011;4174;48.304;16.364;2023-07-24T14:11:33;14.23;;;6.20;;
8268;SDS011;4174;48.304;16.364;2023-07-24T14:17:39;12.07;;;5.70;;
8268;SDS011;4174;48.304;16.364;2023-07-24T14:23:47;13.00;;;5.80;;
8268;SDS011;4174;48.304;16.364;2023-07-24T14:29:51;11.77;;;5.87;;
8268;SDS011;4174;48.304;16.364;2023-07-24T14:35:57;12.03;;;5.97;;
8268;SDS011;4174;48.304;16.364;2023-07-24T14:42:03;13.18;;;5.43;;
8268;SDS011;4174;48.304;16.364;2023-07-24T14:48:10;12.80;;;5.70;;
8268;SDS011;4174;48.304;16.364;2023-07-24T14:54:20;14.27;;;5.93;;
8268;SDS011;4174;48.304;16.364;2023-07-24T15:00:35;11.88;;;5.68;;
8268;SDS011;4174;48.304;16.364;2023-07-24T15:06:42;11.73;;;5.73;;
8268;SDS011;4174;48.304;16.364;2023-07-24T15:12:49;13.45;;;5.87;;
8268;SDS011;4174;48.304;16.364;2023-07-24T15:18:56;13.85;;;5.93;;
8268;SDS011;4174;48.304;16.364;2023-07-24T15:25:06;12.93;;;5.23;;
8268;SDS011;4174;48.304;16.364;2023-07-24T15:31:14;9.60;;;4.80;;
8268;SDS011;4174;48.304;16.364;2023-07-24T15:37:20;12.07;;;4.82;;
8268;SDS011;4174;48.304;16.364;2023-07-24T15:43:25;12.17;;;4.60;;
8268;SDS011;4174;48.304;16.364;2023-07-24T15:49:33;13.10;;;4.82;;
8268;SDS011;4174;48.304;16.364;2023-07-24T15:55:42;10.83;;;4.77;;
8268;SDS011;4174;48.304;16.364;2023-07-24T16:01:48;10.43;;;4.78;;
8268;SDS011;4174;48.304;16.364;2023-07-24T16:08:01;10.83;;;4.90;;
8268;SDS011;4174;48.304;16.364;2023-07-24T16:14:08;14.10;;;4.80;;
8268;SDS011;4174;48.304;16.364;2023-07-24T16:20:23;11.35;;;4.70;;
8268;SDS011;4174;48.304;16.364;2023-07-24T16:26:28;11.40;;;4.60;;
8268;SDS011;4174;48.304;16.364;2023-07-24T16:32:39;11.60;;;5.10;;
8268;SDS011;4174;48.304;16.364;2023-07-24T16:38:45;9.73;;;4.50;;
8268;SDS011;4174;48.304;16.364;2023-07-24T16:44:54;13.27;;;4.62;;
8268;SDS011;4174;48.304;16.364;2023-07-24T16:51:06;11.38;;;4.90;;
8268;SDS011;4174;48.304;16.364;2023-07-24T16:57:11;10.50;;;4.47;;
8268;SDS011;4174;48.304;16.364;2023-07-24T17:03:18;11.38;;;4.90;;
8268;SDS011;4174;48.304;16.364;2023-07-24T17:09:27;11.47;;;4.70;;
8268;SDS011;4174;48.304;16.364;2023-07-24T17:15:38;11.80;;;5.20;;
8268;SDS011;4174;48.304;16.364;2023-07-24T17:21:48;11.45;;;4.90;;
8268;SDS011;4174;48.304;16.364;2023-07-24T17:27:52;10.83;;;4.97;;
8268;SDS011;4174;48.304;16.364;2023-07-24T17:34:00;14.77;;;5.00;;
8268;SDS011;4174;48.304;16.364;2023-07-24T17:40:12;11.10;;;4.50;;
8268;SDS011;4174;48.304;16.364;2023-07-24T17:46:19;14.27;;;5.65;;
8268;SDS011;4174;48.304;16.364;2023-07-24T17:52:29;10.13;;;2.78;;
8268;SDS011;4174;48.304;16.364;2023-07-24T17:58:36;10.77;;;2.37;;
8268;SDS011;4174;48.304;16.364;2023-07-24T18:04:44;7.80;;;1.70;;
8268;SDS011;4174;48.304;16.364;2023-07-24T18:10:55;7.43;;;1.87;;
8268;SDS011;4174;48.304;16.364;2023-07-24T18:17:02;5.18;;;1.30;;
8268;SDS011;4174;48.304;16.364;2023-07-24T18:23:08;9.43;;;4.37;;
8268;SDS011;4174;48.304;16.364;2023-07-24T18:29:12;6.67;;;2.70;;
8268;SDS011;4174;48.304;16.364;2023-07-24T18:35:16;21.23;;;12.18;;
8268;SDS011;4174;48.304;16.364;2023-07-24T18:41:22;9.27;;;4.17;;
8268;SDS011;4174;48.304;16.364;2023-07-24T18:47:29;12.10;;;5.30;;
8268;SDS011;4174;48.304;16.364;2023-07-24T18:53:36;9.63;;;3.47;;
8268;SDS011;4174;48.304;16.364;2023-07-24T18:59:41;8.40;;;3.30;;
8268;SDS011;4174;48.304;16.364;2023-07-24T19:05:48;14.77;;;5.60;;
8268;SDS011;4174;48.304;16.364;2023-07-24T19:11:55;8.03;;;2.77;;
8268;SDS011;4174;48.304;16.364;2023-07-24T19:17:59;8.73;;;3.60;;
8268;SDS011;4174;48.304;16.364;2023-07-24T19:24:04;18.60;;;9.80;;
8268;SDS011;4174;48.304;16.364;2023-07-24T19:30:11;14.20;;;5.73;;
8268;SDS011;4174;48.304;16.364;2023-07-24T19:36:18;13.23;;;6.23;;
8268;SDS011;4174;48.304;16.364;2023-07-24T19:42:24;8.15;;;3.62;;
8268;SDS011;4174;48.304;16.364;2023-07-24T19:48:29;12.77;;;4.60;;
8268;SDS011;4174;48.304;16.364;2023-07-24T19:54:35;10.03;;;3.73;;
8268;SDS011;4174;48.304;16.364;2023-07-24T20:00:43;6.27;;;2.03;;
8268;SDS011;4174;48.304;16.364;2023-07-24T20:06:50;6.80;;;2.13;;
8268;SDS011;4174;48.304;16.364;2023-07-24T20:13:00;6.63;;;2.30;;
8268;SDS011;4174;48.304;16.364;2023-07-24T20:19:08;6.40;;;1.97;;
8268;SDS011;4174;48.304;16.364;2023-07-24T20:25:14;5.83;;;2.00;;
8268;SDS011;4174;48.304;16.364;2023-07-24T20:31:21;5.80;;;1.87;;
8268;SDS011;4174;48.304;16.364;2023-07-24T20:37:27;5.20;;;1.90;;
8268;SDS011;4174;48.304;16.364;2023-07-24T20:43:32;5.60;;;1.85;;
8268;SDS011;4174;48.304;16.364;2023-07-24T20:49:39;6.07;;;1.90;;
8268;SDS011;4174;48.304;16.364;2023-07-24T20:55:53;5.83;;;2.03;;
8268;SDS011;4174;48.304;16.364;2023-07-24T21:01:58;5.77;;;2.00;;
8268;SDS011;4174;48.304;16.364;2023-07-24T21:08:05;5.87;;;2.07;;
8268;SDS011;4174;48.304;16.364;2023-07-24T21:14:10;5.57;;;1.80;;
8268;SDS011;4174;48.304;16.364;2023-07-24T21:20:17;7.57;;;1.70;;
8268;SDS011;4174;48.304;16.364;2023-07-24T21:26:24;4.93;;;1.60;;
8268;SDS011;4174;48.304;16.364;2023-07-24T21:32:29;6.32;;;1.85;;
8268;SDS011;4174;48.304;16.364;2023-07-24T21:38:37;7.40;;;2.00;;
8268;SDS011;4174;48.304;16.364;2023-07-24T21:44:43;6.43;;;1.87;;
8268;SDS011;4174;48.304;16.364;2023-07-24T21:50:48;6.07;;;2.10;;
8268;SDS011;4174;48.304;16.364;2023-07-24T21:56:55;7.05;;;2.10;;
8268;SDS011;4174;48.304;16.364;2023-07-24T22:03:00;5.90;;;2.00;;
8268;SDS011;4174;48.304;16.364;2023-07-24T22:09:06;5.28;;;1.90;;
8268;SDS011;4174;48.304;16.364;2023-07-24T22:15:13;6.43;;;2.10;;
8268;SDS011;4174;48.304;16.364;2023-07-24T22:21:18;6.18;;;2.10;;
8268;SDS011;4174;48.304;16.364;2023-07-24T22:34:00;7.12;;;2.62;;
8268;SDS011;4174;48.304;16.364;2023-07-24T22:40:06;7.20;;;2.55;;
8268;SDS011;4174;48.304;16.364;2023-07-24T22:46:13;7.73;;;2.70;;
8268;SDS011;4174;48.304;16.364;2023-07-24T22:52:18;8.77;;;3.20;;
8268;SDS011;4174;48.304;16.364;2023-07-24T22:58:24;7.93;;;2.63;;
8268;SDS011;4174;48.304;16.364;2023-07-24T23:04:29;7.87;;;2.90;;
8268;SDS011;4174;48.304;16.364;2023-07-24T23:10:34;6.87;;;2.80;;
8268;SDS011;4174;48.304;16.364;2023-07-24T23:16:40;8.50;;;2.80;;
8268;SDS011;4174;48.304;16.364;2023-07-24T23:22:47;8.17;;;3.00;;
8268;SDS011;4174;48.304;16.364;2023-07-24T23:28:58;6.80;;;2.80;;
8268;SDS011;4174;48.304;16.364;2023-07-24T23:35:04;6.85;;;2.70;;
8268;SDS011;4174;48.304;16.364;2023-07-24T23:41:10;7.17;;;2.50;;
8268;SDS011;4174;48.304;16.364;2023-07-24T23:47:16;6.80;;;2.42;;
8268;SDS011;4174;48.304;16.364;2023-07-24T23:53:22;6.30;;;2.40;;
8268;SDS011;4174;48.304;16.364;2023-07-24T23:59:30;7.53;;;2.40;;
